sensor_id;sensor_type;location;lat;lon;timestamp;pressure;altitude;pressure_sealevel;temperature;humidity
40650;BME280;26342;42.826;23.992;2022-12-18T00:01:15;96036.00;;;7.76;100.00
40650;BME280;26342;42.826;23.992;2022-12-18T00:03:40;96050.53;;;7.73;100.00
40650;BME280;26342;42.826;23.992;2022-12-18T00:06:06;96053.28;;;7.67;100.00
40650;BME280;26342;42.826;23.992;2022-12-18T00:08:31;96059.69;;;7.77;100.00
40650;BME280;26342;42.826;23.992;2022-12-18T00:11:03;96057.63;;;7.79;100.00
40650;BME280;26342;42.826;23.992;2022-12-18T00:13:29;96047.06;;;7.73;100.00
40650;BME280;26342;42.826;23.992;2022-12-18T00:15:54;96065.88;;;7.71;100.00
40650;BME280;26342;42.826;23.992;2022-12-18T00:18:19;96069.13;;;7.73;100.00
40650;BME280;26342;42.826;23.992;2022-12-18T00:20:45;96069.94;;;7.74;100.00
40650;BME280;26342;42.826;23.992;2022-12-18T00:23:10;96071.06;;;7.66;100.00
40650;BME280;26342;42.826;23.992;2022-12-18T00:25:36;96072.75;;;7.61;100.00
40650;BME280;26342;42.826;23.992;2022-12-18T00:28:03;96063.97;;;7.60;100.00
40650;BME280;26342;42.826;23.992;2022-12-18T00:30:29;96080.72;;;7.61;100.00
40650;BME280;26342;42.826;23.992;2022-12-18T00:32:54;96082.41;;;7.55;100.00
40650;BME280;26342;42.826;23.992;2022-12-18T00:35:20;96082.03;;;7.51;100.00
40650;BME280;26342;42.826;23.992;2022-12-18T00:37:45;96080.25;;;7.45;100.00
40650;BME280;26342;42.826;23.992;2022-12-18T00:40:11;96083.72;;;7.46;100.00
40650;BME280;26342;42.826;23.992;2022-12-18T00:42:37;96089.25;;;7.44;100.00
40650;BME280;26342;42.826;23.992;2022-12-18T00:47:49;96091.88;;;7.26;100.00
40650;BME280;26342;42.826;23.992;2022-12-18T00:50:14;96086.41;;;7.21;100.00
40650;BME280;26342;42.826;23.992;2022-12-18T00:52:40;96089.94;;;7.15;100.00
40650;BME280;26342;42.826;23.992;2022-12-18T00:55:06;96089.34;;;7.13;100.00
40650;BME280;26342;42.826;23.992;2022-12-18T00:57:31;96093.44;;;7.09;100.00
40650;BME280;26342;42.826;23.992;2022-12-18T00:59:57;96089.63;;;7.05;100.00
40650;BME280;26342;42.826;23.992;2022-12-18T01:02:22;96096.38;;;7.00;100.00
40650;BME280;26342;42.826;23.992;2022-12-18T01:04:48;96103.78;;;6.92;100.00
40650;BME280;26342;42.826;23.992;2022-12-18T01:07:13;96098.38;;;6.80;100.00
40650;BME280;26342;42.826;23.992;2022-12-18T01:09:38;96097.59;;;6.73;100.00
40650;BME280;26342;42.826;23.992;2022-12-18T01:12:04;96096.41;;;6.69;100.00
40650;BME280;26342;42.826;23.992;2022-12-18T01:14:30;96095.25;;;6.58;100.00
40650;BME280;26342;42.826;23.992;2022-12-18T01:16:55;96104.41;;;6.62;100.00
40650;BME280;26342;42.826;23.992;2022-12-18T01:19:20;96096.03;;;6.65;100.00
40650;BME280;26342;42.826;23.992;2022-12-18T01:21:46;96106.44;;;6.60;100.00
40650;BME280;26342;42.826;23.992;2022-12-18T01:24:12;96106.44;;;6.60;100.00
40650;BME280;26342;42.826;23.992;2022-12-18T01:26:37;96110.38;;;6.51;100.00
40650;BME280;26342;42.826;23.992;2022-12-18T01:29:03;96111.56;;;6.55;100.00
40650;BME280;26342;42.826;23.992;2022-12-18T01:31:30;96112.34;;;6.62;100.00
40650;BME280;26342;42.826;23.992;2022-12-18T01:33:59;96112.78;;;6.59;100.00
40650;BME280;26342;42.826;23.992;2022-12-18T01:36:27;96119.34;;;6.57;100.00
40650;BME280;26342;42.826;23.992;2022-12-18T01:38:54;96117.50;;;6.57;100.00
40650;BME280;26342;42.826;23.992;2022-12-18T01:41:23;96123.22;;;6.54;100.00
40650;BME280;26342;42.826;23.992;2022-12-18T01:43:52;96138.31;;;6.54;100.00
40650;BME280;26342;42.826;23.992;2022-12-18T01:46:19;96139.56;;;6.51;100.00
40650;BME280;26342;42.826;23.992;2022-12-18T01:48:47;96136.13;;;6.44;100.00
40650;BME280;26342;42.826;23.992;2022-12-18T01:51:13;96121.50;;;6.35;100.00
40650;BME280;26342;42.826;23.992;2022-12-18T01:53:40;96136.56;;;6.41;100.00
40650;BME280;26342;42.826;23.992;2022-12-18T01:56:06;96139.84;;;6.30;100.00
40650;BME280;26342;42.826;23.992;2022-12-18T01:58:45;96142.28;;;6.31;100.00
40650;BME280;26342;42.826;23.992;2022-12-18T02:01:12;96134.16;;;6.33;100.00
40650;BME280;26342;42.826;23.992;2022-12-18T02:03:41;96130.31;;;6.22;100.00
40650;BME280;26342;42.826;23.992;2022-12-18T02:06:29;96127.66;;;6.22;100.00
40650;BME280;26342;42.826;23.992;2022-12-18T02:09:02;96136.22;;;6.24;100.00
40650;BME280;26342;42.826;23.992;2022-12-18T02:22:18;96155.63;;;6.11;100.00
40650;BME280;26342;42.826;23.992;2022-12-18T02:27:51;96154.59;;;6.19;100.00
40650;BME280;26342;42.826;23.992;2022-12-18T02:30:18;96160.91;;;6.25;100.00
40650;BME280;26342;42.826;23.992;2022-12-18T02:32:48;96166.00;;;6.20;100.00
40650;BME280;26342;42.826;23.992;2022-12-18T02:35:20;96157.25;;;6.19;100.00
40650;BME280;26342;42.826;23.992;2022-12-18T02:37:47;96174.97;;;6.25;100.00
40650;BME280;26342;42.826;23.992;2022-12-18T02:40:14;96171.88;;;6.28;100.00
40650;BME280;26342;42.826;23.992;2022-12-18T02:42:41;96160.03;;;6.31;100.00
40650;BME280;26342;42.826;23.992;2022-12-18T02:45:07;96167.59;;;6.34;100.00
40650;BME280;26342;42.826;23.992;2022-12-18T02:47:36;96168.41;;;6.34;100.00
40650;BME280;26342;42.826;23.992;2022-12-18T02:53:14;96180.44;;;6.30;100.00
40650;BME280;26342;42.826;23.992;2022-12-18T02:58:18;96184.91;;;6.36;100.00
40650;BME280;26342;42.826;23.992;2022-12-18T03:00:52;96184.50;;;6.33;100.00
40650;BME280;26342;42.826;23.992;2022-12-18T03:03:26;96201.38;;;6.45;100.00
40650;BME280;26342;42.826;23.992;2022-12-18T03:06:03;96199.53;;;6.46;100.00
40650;BME280;26342;42.826;23.992;2022-12-18T03:08:35;96197.69;;;6.46;100.00
40650;BME280;26342;42.826;23.992;2022-12-18T03:11:04;96195.63;;;6.55;100.00
40650;BME280;26342;42.826;23.992;2022-12-18T03:13:47;96208.28;;;6.53;100.00
40650;BME280;26342;42.826;23.992;2022-12-18T03:16:17;96188.53;;;6.49;100.00
40650;BME280;26342;42.826;23.992;2022-12-18T03:18:51;96206.22;;;6.55;100.00
40650;BME280;26342;42.826;23.992;2022-12-18T03:21:17;96203.53;;;6.61;100.00
40650;BME280;26342;42.826;23.992;2022-12-18T03:23:48;96210.28;;;6.64;100.00
40650;BME280;26342;42.826;23.992;2022-12-18T03:26:19;96208.22;;;6.66;100.00
40650;BME280;26342;42.826;23.992;2022-12-18T03:28:54;96216.19;;;6.66;100.00
40650;BME280;26342;42.826;23.992;2022-12-18T03:31:23;96220.91;;;6.57;100.00
40650;BME280;26342;42.826;23.992;2022-12-18T03:33:54;96225.22;;;6.52;100.00
40650;BME280;26342;42.826;23.992;2022-12-18T03:36:20;96236.81;;;6.57;100.00
40650;BME280;26342;42.826;23.992;2022-12-18T03:38:46;96231.13;;;6.54;100.00
40650;BME280;26342;42.826;23.992;2022-12-18T03:41:25;96242.34;;;6.56;100.00
40650;BME280;26342;42.826;23.992;2022-12-18T03:44:14;96249.28;;;6.57;100.00
40650;BME280;26342;42.826;23.992;2022-12-18T03:47:07;96247.03;;;6.54;100.00
40650;BME280;26342;42.826;23.992;2022-12-18T03:49:38;96254.75;;;6.55;100.00
40650;BME280;26342;42.826;23.992;2022-12-18T03:52:09;96254.19;;;6.47;100.00
40650;BME280;26342;42.826;23.992;2022-12-18T03:54:36;96259.91;;;6.50;100.00
40650;BME280;26342;42.826;23.992;2022-12-18T03:57:22;96258.88;;;6.51;100.00
40650;BME280;26342;42.826;23.992;2022-12-18T03:59:55;96247.84;;;6.48;100.00
40650;BME280;26342;42.826;23.992;2022-12-18T04:02:23;96267.63;;;6.58;100.00
40650;BME280;26342;42.826;23.992;2022-12-18T04:04:52;96269.91;;;6.48;100.00
40650;BME280;26342;42.826;23.992;2022-12-18T04:07:19;96271.72;;;6.48;100.00
40650;BME280;26342;42.826;23.992;2022-12-18T04:09:47;96275.00;;;6.43;100.00
40650;BME280;26342;42.826;23.992;2022-12-18T04:12:14;96280.50;;;6.48;100.00
40650;BME280;26342;42.826;23.992;2022-12-18T04:14:39;96282.75;;;6.38;100.00
40650;BME280;26342;42.826;23.992;2022-12-18T04:17:04;96275.44;;;6.40;100.00
40650;BME280;26342;42.826;23.992;2022-12-18T04:19:30;96276.41;;;6.46;100.00
40650;BME280;26342;42.826;23.992;2022-12-18T04:21:55;96288.88;;;6.45;100.00
40650;BME280;26342;42.826;23.992;2022-12-18T04:24:21;96285.19;;;6.39;100.00
40650;BME280;26342;42.826;23.992;2022-12-18T04:26:46;96291.97;;;6.35;100.00
40650;BME280;26342;42.826;23.992;2022-12-18T04:29:11;96295.63;;;6.34;100.00
40650;BME280;26342;42.826;23.992;2022-12-18T04:31:37;96302.56;;;6.35;100.00
40650;BME280;26342;42.826;23.992;2022-12-18T04:34:03;96295.41;;;6.36;100.00
40650;BME280;26342;42.826;23.992;2022-12-18T04:36:28;96292.16;;;6.34;100.00
40650;BME280;26342;42.826;23.992;2022-12-18T04:38:54;96291.16;;;6.22;100.00
40650;BME280;26342;42.826;23.992;2022-12-18T04:41:20;96309.91;;;6.40;100.00
40650;BME280;26342;42.826;23.992;2022-12-18T04:43:45;96311.09;;;6.44;100.00
40650;BME280;26342;42.826;23.992;2022-12-18T04:46:11;96305.41;;;6.40;100.00
40650;BME280;26342;42.826;23.992;2022-12-18T04:48:36;96310.31;;;6.37;100.00
40650;BME280;26342;42.826;23.992;2022-12-18T04:51:03;96317.44;;;6.43;100.00
40650;BME280;26342;42.826;23.992;2022-12-18T04:53:28;96325.19;;;6.38;100.00
40650;BME280;26342;42.826;23.992;2022-12-18T04:56:05;96321.72;;;6.44;100.00
40650;BME280;26342;42.826;23.992;2022-12-18T04:58:31;96333.94;;;6.52;100.00
40650;BME280;26342;42.826;23.992;2022-12-18T05:00:56;96328.19;;;6.55;100.00
40650;BME280;26342;42.826;23.992;2022-12-18T05:03:22;96333.91;;;6.58;100.00
40650;BME280;26342;42.826;23.992;2022-12-18T05:05:51;96341.88;;;6.65;100.00
40650;BME280;26342;42.826;23.992;2022-12-18T05:08:16;96339.22;;;6.65;100.00
40650;BME280;26342;42.826;23.992;2022-12-18T05:10:42;96339.38;;;6.70;100.00
40650;BME280;26342;42.826;23.992;2022-12-18T05:13:07;96346.31;;;6.71;100.00
40650;BME280;26342;42.826;23.992;2022-12-18T05:15:33;96355.72;;;6.74;100.00
40650;BME280;26342;42.826;23.992;2022-12-18T05:17:59;96346.94;;;6.66;100.00
40650;BME280;26342;42.826;23.992;2022-12-18T05:20:25;96366.72;;;6.70;100.00
40650;BME280;26342;42.826;23.992;2022-12-18T05:22:52;96371.22;;;6.70;100.00
40650;BME280;26342;42.826;23.992;2022-12-18T05:25:18;96371.63;;;6.67;100.00
40650;BME280;26342;42.826;23.992;2022-12-18T05:27:44;96371.66;;;6.54;100.00
40650;BME280;26342;42.826;23.992;2022-12-18T05:30:10;96371.88;;;6.46;100.00
40650;BME280;26342;42.826;23.992;2022-12-18T05:32:37;96372.09;;;6.44;100.00
40650;BME280;26342;42.826;23.992;2022-12-18T05:35:03;96383.13;;;6.41;100.00
40650;BME280;26342;42.826;23.992;2022-12-18T05:37:28;96380.84;;;6.31;100.00
40650;BME280;26342;42.826;23.992;2022-12-18T05:39:54;96381.47;;;6.27;100.00
40650;BME280;26342;42.826;23.992;2022-12-18T05:42:19;96388.84;;;6.25;100.00
40650;BME280;26342;42.826;23.992;2022-12-18T05:44:45;96394.91;;;6.32;100.00
40650;BME280;26342;42.826;23.992;2022-12-18T05:47:10;96398.19;;;6.27;100.00
40650;BME280;26342;42.826;23.992;2022-12-18T05:49:35;96395.94;;;6.31;100.00
40650;BME280;26342;42.826;23.992;2022-12-18T05:52:01;96395.13;;;6.30;100.00
40650;BME280;26342;42.826;23.992;2022-12-18T05:54:27;96404.09;;;6.36;100.00
40650;BME280;26342;42.826;23.992;2022-12-18T05:56:53;96410.00;;;6.44;100.00
40650;BME280;26342;42.826;23.992;2022-12-18T05:59:19;96419.81;;;6.44;100.00
40650;BME280;26342;42.826;23.992;2022-12-18T06:01:44;96430.03;;;6.40;100.00
40650;BME280;26342;42.826;23.992;2022-12-18T06:04:09;96438.34;;;6.31;100.00
40650;BME280;26342;42.826;23.992;2022-12-18T06:06:35;96447.53;;;6.22;100.00
40650;BME280;26342;42.826;23.992;2022-12-18T06:09:00;96449.97;;;6.23;100.00
40650;BME280;26342;42.826;23.992;2022-12-18T06:11:26;96441.22;;;6.23;100.00
40650;BME280;26342;42.826;23.992;2022-12-18T06:13:54;96447.31;;;6.23;100.00
40650;BME280;26342;42.826;23.992;2022-12-18T06:16:20;96458.31;;;6.13;100.00
40650;BME280;26342;42.826;23.992;2022-12-18T06:18:45;96447.50;;;5.95;100.00
40650;BME280;26342;42.826;23.992;2022-12-18T06:21:11;96456.84;;;5.91;100.00
40650;BME280;26342;42.826;23.992;2022-12-18T06:23:37;96454.34;;;5.76;100.00
40650;BME280;26342;42.826;23.992;2022-12-18T06:26:05;96464.59;;;5.86;100.00
40650;BME280;26342;42.826;23.992;2022-12-18T06:28:30;96462.53;;;5.81;100.00
40650;BME280;26342;42.826;23.992;2022-12-18T06:30:56;96470.91;;;5.85;100.00
40650;BME280;26342;42.826;23.992;2022-12-18T06:33:21;96475.84;;;6.01;100.00
40650;BME280;26342;42.826;23.992;2022-12-18T06:35:46;96470.34;;;5.96;100.00
40650;BME280;26342;42.826;23.992;2022-12-18T06:38:12;96481.13;;;5.95;100.00
40650;BME280;26342;42.826;23.992;2022-12-18T06:40:38;96488.47;;;5.93;100.00
40650;BME280;26342;42.826;23.992;2022-12-18T06:43:04;96478.69;;;5.93;100.00
40650;BME280;26342;42.826;23.992;2022-12-18T06:45:30;96492.56;;;6.02;100.00
40650;BME280;26342;42.826;23.992;2022-12-18T06:47:55;96492.97;;;6.05;100.00
40650;BME280;26342;42.826;23.992;2022-12-18T06:50:20;96500.91;;;6.05;100.00
40650;BME280;26342;42.826;23.992;2022-12-18T06:52:46;96511.13;;;6.15;100.00
40650;BME280;26342;42.826;23.992;2022-12-18T06:55:11;96506.00;;;6.07;100.00
40650;BME280;26342;42.826;23.992;2022-12-18T06:57:37;96504.59;;;6.04;100.00
40650;BME280;26342;42.826;23.992;2022-12-18T07:00:06;96508.63;;;6.00;100.00
40650;BME280;26342;42.826;23.992;2022-12-18T07:02:32;96500.09;;;6.05;100.00
40650;BME280;26342;42.826;23.992;2022-12-18T07:04:57;96502.97;;;6.10;100.00
40650;BME280;26342;42.826;23.992;2022-12-18T07:07:23;96504.00;;;6.15;100.00
40650;BME280;26342;42.826;23.992;2022-12-18T07:09:51;96514.00;;;6.20;100.00
40650;BME280;26342;42.826;23.992;2022-12-18T07:12:17;96511.75;;;6.24;100.00
40650;BME280;26342;42.826;23.992;2022-12-18T07:14:42;96518.09;;;6.29;100.00
40650;BME280;26342;42.826;23.992;2022-12-18T07:17:08;96507.88;;;6.20;100.00
40650;BME280;26342;42.826;23.992;2022-12-18T07:19:33;96519.31;;;6.27;100.00
40650;BME280;26342;42.826;23.992;2022-12-18T07:21:59;96524.81;;;6.25;100.00
40650;BME280;26342;42.826;23.992;2022-12-18T07:24:25;96518.50;;;6.26;100.00
40650;BME280;26342;42.826;23.992;2022-12-18T07:26:50;96531.34;;;6.29;100.00
40650;BME280;26342;42.826;23.992;2022-12-18T07:29:15;96527.69;;;6.37;100.00
40650;BME280;26342;42.826;23.992;2022-12-18T07:31:41;96526.44;;;6.39;100.00
40650;BME280;26342;42.826;23.992;2022-12-18T07:34:13;96526.06;;;6.42;100.00
40650;BME280;26342;42.826;23.992;2022-12-18T07:36:38;96530.75;;;6.47;100.00
40650;BME280;26342;42.826;23.992;2022-12-18T07:39:04;96544.03;;;6.54;100.00
40650;BME280;26342;42.826;23.992;2022-12-18T07:41:29;96531.19;;;6.51;100.00
40650;BME280;26342;42.826;23.992;2022-12-18T07:43:55;96538.72;;;6.54;100.00
40650;BME280;26342;42.826;23.992;2022-12-18T07:46:20;96541.16;;;6.62;100.00
40650;BME280;26342;42.826;23.992;2022-12-18T07:48:46;96538.72;;;6.67;100.00
40650;BME280;26342;42.826;23.992;2022-12-18T07:51:11;96543.22;;;6.66;100.00
40650;BME280;26342;42.826;23.992;2022-12-18T07:53:37;96540.38;;;6.68;100.00
40650;BME280;26342;42.826;23.992;2022-12-18T07:56:05;96550.38;;;6.72;100.00
40650;BME280;26342;42.826;23.992;2022-12-18T07:58:32;96541.78;;;6.77;100.00
40650;BME280;26342;42.826;23.992;2022-12-18T08:01:09;96543.03;;;6.81;100.00
40650;BME280;26342;42.826;23.992;2022-12-18T08:03:36;96551.59;;;6.83;100.00
40650;BME280;26342;42.826;23.992;2022-12-18T08:06:04;96545.25;;;6.84;100.00
40650;BME280;26342;42.826;23.992;2022-12-18T08:08:30;96552.19;;;6.85;100.00
40650;BME280;26342;42.826;23.992;2022-12-18T08:10:56;96560.38;;;6.90;100.00
40650;BME280;26342;42.826;23.992;2022-12-18T08:13:22;96558.94;;;6.88;100.00
40650;BME280;26342;42.826;23.992;2022-12-18T08:16:20;96564.88;;;6.90;100.00
40650;BME280;26342;42.826;23.992;2022-12-18T08:18:47;96576.28;;;6.90;100.00
40650;BME280;26342;42.826;23.992;2022-12-18T08:21:18;96576.88;;;6.86;100.00
40650;BME280;26342;42.826;23.992;2022-12-18T08:23:46;96566.09;;;6.74;100.00
40650;BME280;26342;42.826;23.992;2022-12-18T08:26:12;96572.59;;;6.78;100.00
40650;BME280;26342;42.826;23.992;2022-12-18T08:28:38;96582.63;;;6.89;100.00
40650;BME280;26342;42.826;23.992;2022-12-18T08:31:04;96588.53;;;6.91;100.00
40650;BME280;26342;42.826;23.992;2022-12-18T08:33:30;96587.72;;;6.91;100.00
40650;BME280;26342;42.826;23.992;2022-12-18T08:35:55;96586.31;;;6.88;100.00
40650;BME280;26342;42.826;23.992;2022-12-18T08:38:20;96589.34;;;6.92;100.00
40650;BME280;26342;42.826;23.992;2022-12-18T08:40:46;96595.28;;;6.87;100.00
40650;BME280;26342;42.826;23.992;2022-12-18T08:43:11;96595.47;;;6.92;100.00
40650;BME280;26342;42.826;23.992;2022-12-18T08:45:56;96602.03;;;6.96;100.00
40650;BME280;26342;42.826;23.992;2022-12-18T08:48:21;96590.59;;;6.89;100.00
40650;BME280;26342;42.826;23.992;2022-12-18T08:50:57;96590.59;;;6.96;100.00
40650;BME280;26342;42.826;23.992;2022-12-18T08:53:24;96592.00;;;6.98;100.00
40650;BME280;26342;42.826;23.992;2022-12-18T08:55:49;96591.41;;;7.03;100.00
40650;BME280;26342;42.826;23.992;2022-12-18T08:58:14;96597.72;;;7.09;100.00
40650;BME280;26342;42.826;23.992;2022-12-18T09:00:40;96599.16;;;7.11;100.00
40650;BME280;26342;42.826;23.992;2022-12-18T09:03:11;96606.50;;;7.16;100.00
40650;BME280;26342;42.826;23.992;2022-12-18T09:05:37;96609.16;;;7.22;100.00
40650;BME280;26342;42.826;23.992;2022-12-18T09:08:02;96601.41;;;7.21;100.00
40650;BME280;26342;42.826;23.992;2022-12-18T09:10:27;96606.50;;;7.22;100.00
40650;BME280;26342;42.826;23.992;2022-12-18T09:12:53;96593.00;;;7.24;100.00
40650;BME280;26342;42.826;23.992;2022-12-18T09:15:18;96604.06;;;7.27;100.00
40650;BME280;26342;42.826;23.992;2022-12-18T09:17:43;96606.69;;;7.34;100.00
40650;BME280;26342;42.826;23.992;2022-12-18T09:20:09;96609.16;;;7.36;100.00
40650;BME280;26342;42.826;23.992;2022-12-18T09:22:35;96606.69;;;7.41;100.00
40650;BME280;26342;42.826;23.992;2022-12-18T09:25:00;96603.84;;;7.36;100.00
40650;BME280;26342;42.826;23.992;2022-12-18T09:27:25;96610.34;;;7.46;100.00
40650;BME280;26342;42.826;23.992;2022-12-18T09:29:51;96616.28;;;7.48;100.00
40650;BME280;26342;42.826;23.992;2022-12-18T09:32:16;96592.19;;;7.43;100.00
40650;BME280;26342;42.826;23.992;2022-12-18T09:34:42;96607.28;;;7.49;100.00
40650;BME280;26342;42.826;23.992;2022-12-18T09:37:07;96619.75;;;7.49;100.00
40650;BME280;26342;42.826;23.992;2022-12-18T09:39:33;96614.84;;;7.46;100.00
40650;BME280;26342;42.826;23.992;2022-12-18T09:41:58;96620.78;;;7.41;100.00
40650;BME280;26342;42.826;23.992;2022-12-18T09:44:30;96618.94;;;7.42;100.00
40650;BME280;26342;42.826;23.992;2022-12-18T09:47:05;96613.22;;;7.45;100.00
40650;BME280;26342;42.826;23.992;2022-12-18T09:49:37;96616.91;;;7.37;100.00
40650;BME280;26342;42.826;23.992;2022-12-18T09:54:41;96623.84;;;7.38;100.00
40650;BME280;26342;42.826;23.992;2022-12-18T09:57:13;96622.00;;;7.25;100.00
40650;BME280;26342;42.826;23.992;2022-12-18T09:59:39;96625.50;;;7.19;100.00
40650;BME280;26342;42.826;23.992;2022-12-18T10:02:17;96623.66;;;7.20;100.00
40650;BME280;26342;42.826;23.992;2022-12-18T10:04:43;96621.22;;;7.12;100.00
40650;BME280;26342;42.826;23.992;2022-12-18T10:07:27;96624.88;;;7.17;100.00
40650;BME280;26342;42.826;23.992;2022-12-18T10:10:06;96624.28;;;7.22;100.00
40650;BME280;26342;42.826;23.992;2022-12-18T10:18:06;96625.47;;;7.33;100.00
40650;BME280;26342;42.826;23.992;2022-12-18T10:20:45;96626.72;;;7.30;100.00
40650;BME280;26342;42.826;23.992;2022-12-18T10:26:11;96626.13;;;7.28;100.00
40650;BME280;26342;42.826;23.992;2022-12-18T10:28:40;96622.63;;;7.27;99.44
40650;BME280;26342;42.826;23.992;2022-12-18T10:31:07;96622.63;;;7.21;99.94
40650;BME280;26342;42.826;23.992;2022-12-18T10:33:37;96615.66;;;7.33;95.26
40650;BME280;26342;42.826;23.992;2022-12-18T10:36:02;96616.28;;;7.42;96.90
40650;BME280;26342;42.826;23.992;2022-12-18T10:38:30;96615.06;;;7.44;97.53
40650;BME280;26342;42.826;23.992;2022-12-18T10:48:36;96607.28;;;7.56;100.00
40650;BME280;26342;42.826;23.992;2022-12-18T10:51:06;96616.47;;;7.53;96.61
40650;BME280;26342;42.826;23.992;2022-12-18T10:53:34;96612.78;;;7.54;98.89
40650;BME280;26342;42.826;23.992;2022-12-18T10:56:00;96613.81;;;7.47;88.75
40650;BME280;26342;42.826;23.992;2022-12-18T10:58:34;96620.38;;;7.44;95.89
40650;BME280;26342;42.826;23.992;2022-12-18T11:06:13;96620.75;;;7.48;98.70
40650;BME280;26342;42.826;23.992;2022-12-18T11:08:39;96604.22;;;7.59;99.17
40650;BME280;26342;42.826;23.992;2022-12-18T11:11:20;96599.53;;;7.48;98.23
40650;BME280;26342;42.826;23.992;2022-12-18T11:14:26;96619.72;;;7.55;100.00
40650;BME280;26342;42.826;23.992;2022-12-18T11:16:52;96611.38;;;7.52;100.00
40650;BME280;26342;42.826;23.992;2022-12-18T11:19:20;96618.31;;;7.46;82.06
40650;BME280;26342;42.826;23.992;2022-12-18T11:21:47;96620.16;;;7.39;95.66
40650;BME280;26342;42.826;23.992;2022-12-18T11:26:51;96616.47;;;7.40;99.73
40650;BME280;26342;42.826;23.992;2022-12-18T11:29:19;96626.72;;;7.37;92.76
40650;BME280;26342;42.826;23.992;2022-12-18T11:31:48;96617.94;;;7.36;100.00
40650;BME280;26342;42.826;23.992;2022-12-18T11:34:26;96624.66;;;7.32;100.00
40650;BME280;26342;42.826;23.992;2022-12-18T11:36:54;96626.28;;;7.33;95.32
40650;BME280;26342;42.826;23.992;2022-12-18T11:39:39;96629.38;;;7.30;92.11
40650;BME280;26342;42.826;23.992;2022-12-18T11:42:12;96624.47;;;7.27;92.46
40650;BME280;26342;42.826;23.992;2022-12-18T11:47:54;96638.34;;;7.22;94.37
40650;BME280;26342;42.826;23.992;2022-12-18T11:50:25;96638.16;;;7.17;94.37
40650;BME280;26342;42.826;23.992;2022-12-18T11:52:51;96636.94;;;7.13;95.04
40650;BME280;26342;42.826;23.992;2022-12-18T12:00:42;96622.41;;;7.03;99.53
40650;BME280;26342;42.826;23.992;2022-12-18T12:09:04;96636.91;;;6.93;93.75
40650;BME280;26342;42.826;23.992;2022-12-18T12:17:07;96635.06;;;6.94;95.77
40650;BME280;26342;42.826;23.992;2022-12-18T12:22:18;96625.47;;;6.93;89.01
40650;BME280;26342;42.826;23.992;2022-12-18T12:30:20;96629.78;;;6.87;89.41
40650;BME280;26342;42.826;23.992;2022-12-18T12:33:12;96633.44;;;6.93;83.44
40650;BME280;26342;42.826;23.992;2022-12-18T12:40:52;96631.19;;;6.83;80.12
40650;BME280;26342;42.826;23.992;2022-12-18T12:45:55;96617.69;;;6.65;86.31
40650;BME280;26342;42.826;23.992;2022-12-18T12:51:03;96637.53;;;7.02;81.69
40650;BME280;26342;42.826;23.992;2022-12-18T12:53:35;96644.28;;;7.11;79.22
40650;BME280;26342;42.826;23.992;2022-12-18T12:56:01;96639.78;;;7.05;77.62
40650;BME280;26342;42.826;23.992;2022-12-18T13:04:23;96652.63;;;7.08;86.08
40650;BME280;26342;42.826;23.992;2022-12-18T13:07:04;96651.84;;;7.14;80.04
40650;BME280;26342;42.826;23.992;2022-12-18T13:09:32;96646.31;;;7.16;81.91
40650;BME280;26342;42.826;23.992;2022-12-18T13:12:10;96654.28;;;7.16;81.03
40650;BME280;26342;42.826;23.992;2022-12-18T13:15:12;96644.88;;;7.07;78.84
40650;BME280;26342;42.826;23.992;2022-12-18T13:17:39;96657.34;;;7.13;76.97
40650;BME280;26342;42.826;23.992;2022-12-18T13:20:06;96659.19;;;7.06;80.60
40650;BME280;26342;42.826;23.992;2022-12-18T13:22:38;96662.88;;;7.05;82.64
40650;BME280;26342;42.826;23.992;2022-12-18T13:43:24;96672.81;;;6.83;79.04
40650;BME280;26342;42.826;23.992;2022-12-18T13:46:05;96676.50;;;6.88;80.59
40650;BME280;26342;42.826;23.992;2022-12-18T13:48:37;96675.28;;;6.91;81.64
40650;BME280;26342;42.826;23.992;2022-12-18T13:51:09;96677.72;;;6.86;85.19
40650;BME280;26342;42.826;23.992;2022-12-18T13:53:58;96677.94;;;6.91;84.53
40650;BME280;26342;42.826;23.992;2022-12-18T13:56:31;96681.38;;;6.85;82.83
40650;BME280;26342;42.826;23.992;2022-12-18T13:59:32;96682.41;;;6.84;81.86
40650;BME280;26342;42.826;23.992;2022-12-18T14:02:00;96680.16;;;6.74;82.76
40650;BME280;26342;42.826;23.992;2022-12-18T14:04:28;96684.22;;;6.77;81.91
40650;BME280;26342;42.826;23.992;2022-12-18T14:07:02;96692.19;;;6.77;87.12
40650;BME280;26342;42.826;23.992;2022-12-18T14:09:31;96690.75;;;6.74;84.42
40650;BME280;26342;42.826;23.992;2022-12-18T14:12:00;96697.09;;;6.73;85.05
40650;BME280;26342;42.826;23.992;2022-12-18T14:14:46;96695.69;;;6.84;84.34
40650;BME280;26342;42.826;23.992;2022-12-18T14:17:13;96690.34;;;6.77;83.35
40650;BME280;26342;42.826;23.992;2022-12-18T14:19:44;96691.19;;;6.84;84.90
40650;BME280;26342;42.826;23.992;2022-12-18T14:22:17;96695.88;;;6.76;85.93
40650;BME280;26342;42.826;23.992;2022-12-18T14:24:43;96693.41;;;6.74;84.39
40650;BME280;26342;42.826;23.992;2022-12-18T14:27:27;96695.03;;;6.75;85.47
40650;BME280;26342;42.826;23.992;2022-12-18T14:29:52;96698.53;;;6.82;82.89
40650;BME280;26342;42.826;23.992;2022-12-18T14:32:20;96711.16;;;6.74;83.81
40650;BME280;26342;42.826;23.992;2022-12-18T14:34:47;96707.09;;;6.78;85.29
40650;BME280;26342;42.826;23.992;2022-12-18T14:37:15;96712.00;;;6.74;84.59
40650;BME280;26342;42.826;23.992;2022-12-18T14:39:52;96713.59;;;6.68;83.51
40650;BME280;26342;42.826;23.992;2022-12-18T14:42:18;96709.91;;;6.69;84.90
40650;BME280;26342;42.826;23.992;2022-12-18T14:44:43;96708.28;;;6.68;83.48
40650;BME280;26342;42.826;23.992;2022-12-18T14:47:16;96692.16;;;6.57;84.11
40650;BME280;26342;42.826;23.992;2022-12-18T14:49:42;96708.63;;;6.52;83.24
40650;BME280;26342;42.826;23.992;2022-12-18T14:52:25;96701.25;;;6.48;84.42